Time;durP1;ratioP1;P1;durP2;ratioP2;P2;SDS_P1;SDS_P2;PMS_P1;PMS_P2;Temp;Humidity;BMP_temperature;BMP_pressure;BME280_temperature;BME280_humidity;BME280_pressure;Samples;Min_cycle;Max_cycle;Signal;HPM_P1;HPM_P2
2023/10/10 00:01:04;;;;;;;11.25;2.30;;;;;;;17.47;54.47;100858.31;5050036;28;20033;-80
2023/10/10 00:03:32;;;;;;;6.60;2.60;;;;;;;17.71;54.36;100897.38;5050439;28;20053;-80
2023/10/10 00:06:06;;;;;;;5.00;2.33;;;;;;;17.70;54.56;100890.25;5050025;28;20028;-80
2023/10/10 00:08:36;;;;;;;5.80;2.20;;;;;;;17.63;54.77;100872.88;5049707;28;20025;-79
2023/10/10 00:11:14;;;;;;;11.55;2.65;;;;;;;17.61;54.87;100858.59;5050171;28;20029;-80
2023/10/10 00:13:46;;;;;;;7.63;1.95;;;;;;;17.50;55.09;100864.28;5052968;28;20108;-78
2023/10/10 00:16:38;;;;;;;8.80;1.98;;;;;;;17.56;55.15;100877.25;5054280;28;20033;-80
2023/10/10 00:19:28;;;;;;;15.68;2.70;;;;;;;17.36;55.26;100832.28;5053061;28;20120;-79
2023/10/10 00:21:54;;;;;;;17.20;4.10;;;;;;;17.41;55.24;100836.22;5053517;28;20037;-80
2023/10/10 00:24:41;;;;;;;12.68;3.90;;;;;;;17.41;55.12;100828.06;5036358;28;20459;-80
2023/10/10 00:27:15;;;;;;;10.68;2.60;;;;;;;17.61;55.17;100855.88;5053042;28;20120;-80
2023/10/10 00:29:44;;;;;;;8.65;2.33;;;;;;;17.57;55.04;100846.34;5036478;28;20145;-80
2023/10/10 00:32:17;;;;;;;9.15;2.97;;;;;;;17.60;55.17;100850.59;5053933;28;20037;-80
2023/10/10 00:34:48;;;;;;;16.20;2.10;;;;;;;17.60;55.17;100846.00;5018325;28;20040;-80
2023/10/10 00:37:17;;;;;;;5.68;2.22;;;;;;;17.40;55.25;100815.47;5053833;28;20031;-79
2023/10/10 00:39:52;;;;;;;6.15;1.65;;;;;;;17.55;55.13;100839.38;5053847;28;20044;-80
2023/10/10 00:42:36;;;;;;;11.68;2.58;;;;;;;17.59;55.13;100855.19;5053406;28;20017;-80
2023/10/10 00:45:04;;;;;;;7.28;2.72;;;;;;;17.61;55.27;100855.88;5053845;28;20040;-80
2023/10/10 00:47:38;;;;;;;13.43;4.47;;;;;;;17.57;55.07;100840.91;5053175;28;20025;-80
2023/10/10 00:50:07;;;;;;;5.60;2.67;;;;;;;17.59;55.18;100843.44;5053216;28;20587;-80
2023/10/10 00:52:36;;;;;;;7.30;2.58;;;;;;;17.53;55.21;100844.06;5019007;28;20044;-80
2023/10/10 00:55:04;;;;;;;10.95;2.33;;;;;;;17.46;55.06;100821.28;5018857;28;20131;-79
2023/10/10 00:57:36;;;;;;;12.52;2.80;;;;;;;17.48;55.48;100836.41;5052911;28;20147;-80
2023/10/10 01:00:10;;;;;;;21.92;7.28;;;;;;;17.51;55.44;100837.94;5053714;28;20025;-80
2023/10/10 01:02:37;;;;;;;11.27;3.45;;;;;;;17.50;55.33;100836.22;5053282;28;20055;-80
2023/10/10 01:05:13;;;;;;;5.18;2.42;;;;;;;17.47;55.20;100828.41;5052796;28;20025;-79
2023/10/10 01:07:43;;;;;;;5.97;2.25;;;;;;;17.42;55.21;100821.63;5052891;28;20027;-79
2023/10/10 01:10:12;;;;;;;10.48;2.67;;;;;;;17.34;55.09;100799.81;5053247;28;20425;-79
2023/10/10 01:12:42;;;;;;;10.70;2.72;;;;;;;17.49;55.16;100827.22;5054930;28;20029;-79
2023/10/10 01:18:01;;;;;;;8.52;3.17;;;;;;;17.52;54.62;100820.63;5010517;28;20065;-80
2023/10/10 01:20:34;;;;;;;10.18;2.58;;;;;;;17.42;54.68;100818.88;5010410;28;20042;-80
2023/10/10 01:23:02;;;;;;;13.32;2.97;;;;;;;17.47;54.80;100821.09;5010063;28;20176;-80
2023/10/10 01:25:31;;;;;;;6.72;3.15;;;;;;;17.27;54.55;100790.63;5010197;28;20092;-80
2023/10/10 01:27:57;;;;;;;15.20;6.18;;;;;;;17.40;54.19;100807.31;5010155;28;20029;-80
2023/10/10 01:33:13;;;;;;;4.63;2.30;;;;;;;17.49;54.67;100827.22;5010691;28;20049;-81
2023/10/10 01:35:40;;;;;;;4.97;2.10;;;;;;;17.49;54.62;100831.84;5010490;28;20038;-79
2023/10/10 01:38:22;;;;;;;8.77;3.03;;;;;;;17.51;54.27;100830.66;5010431;28;20117;-80
2023/10/10 01:40:48;;;;;;;10.10;2.45;;;;;;;17.45;54.16;100819.56;5010433;28;20030;-80
2023/10/10 01:43:17;;;;;;;9.55;2.80;;;;;;;17.52;54.01;100828.78;4993829;28;20660;-81
2023/10/10 01:45:43;;;;;;;10.20;2.78;;;;;;;17.25;54.00;100776.31;5009975;28;20037;-80
2023/10/10 01:48:11;;;;;;;13.52;2.58;;;;;;;17.57;53.85;100826.44;5010104;28;20044;-79
2023/10/10 01:50:36;;;;;;;8.07;2.47;;;;;;;17.51;53.81;100818.91;5009882;28;20038;-79
2023/10/10 01:53:10;;;;;;;5.50;2.38;;;;;;;17.46;53.72;100800.34;4993389;28;20048;-79
2023/10/10 01:55:36;;;;;;;14.63;4.40;;;;;;;17.59;53.62;100825.25;5029675;28;20068;-81
2023/10/10 01:58:03;;;;;;;8.27;3.35;;;;;;;17.59;53.42;100816.25;5052190;28;20028;-80
2023/10/10 02:00:34;;;;;;;8.63;2.78;;;;;;;17.49;53.03;100808.19;5052596;28;20396;-80
2023/10/10 02:03:01;;;;;;;13.65;2.97;;;;;;;17.64;53.11;100835.66;5052074;28;20039;-80
2023/10/10 02:05:45;;;;;;;17.40;4.05;;;;;;;17.47;53.15;100802.06;5052342;28;20481;-80
2023/10/10 02:08:17;;;;;;;7.93;4.60;;;;;;;17.60;53.24;100834.28;5051559;28;20119;-80
2023/10/10 02:10:46;;;;;;;21.08;5.03;;;;;;;17.38;53.14;100801.19;5033966;28;20481;-80
2023/10/10 02:13:12;;;;;;;10.73;5.63;;;;;;;17.53;53.25;100822.31;5051649;28;20033;-79
2023/10/10 02:15:39;;;;;;;14.93;6.20;;;;;;;17.56;53.01;100835.59;5051502;28;20025;-80
2023/10/10 02:18:13;;;;;;;16.67;7.63;;;;;;;17.50;53.08;100812.63;5051742;28;20135;-79
2023/10/10 02:23:24;;;;;;;22.15;11.68;;;;;;;17.60;52.99;100828.84;5051809;28;20218;-80
2023/10/10 02:25:49;;;;;;;28.35;11.82;;;;;;;17.61;52.83;100825.09;5051716;28;20032;-80
2023/10/10 02:30:46;;;;;;;28.00;13.68;;;;;;;17.59;53.07;100827.97;5054301;28;20132;-79
2023/10/10 02:35:54;;;;;;;29.80;14.85;;;;;;;17.61;52.92;100831.41;5050755;28;20035;-80
2023/10/10 02:38:33;;;;;;;61.45;16.50;;;;;;;17.67;52.89;100819.00;5051764;28;20028;-77
2023/10/10 02:43:52;;;;;;;;;;;;;;;17.61;52.82;100819.66;5051484;28;20039;-80
2023/10/10 02:46:18;;;;;;;34.72;10.27;;;;;;;17.52;52.97;100820.63;5051488;28;19913;-80
2023/10/10 02:48:53;;;;;;;26.30;7.90;;;;;;;17.46;53.22;100810.41;5051372;28;20029;-79
2023/10/10 02:51:20;;;;;;;19.65;8.95;;;;;;;17.53;53.19;100822.31;5051881;28;20063;-79
2023/10/10 02:53:46;;;;;;;26.88;7.10;;;;;;;17.46;52.96;100807.69;5033338;28;20455;-78
2023/10/10 02:56:19;;;;;;;16.30;6.65;;;;;;;17.43;53.37;100811.56;5050698;28;20484;-79
2023/10/10 02:58:47;;;;;;;17.50;6.20;;;;;;;17.42;53.18;100793.56;5050903;28;20072;-80
2023/10/10 03:03:56;;;;;;;16.63;6.50;;;;;;;17.46;53.11;100815.84;5050816;28;20436;-81
2023/10/10 03:06:28;;;;;;;17.60;4.68;;;;;;;17.48;53.16;100803.78;5051341;28;20017;-80
2023/10/10 03:09:07;;;;;;;16.42;4.13;;;;;;;17.51;53.05;100814.31;5001577;28;20574;-78
2023/10/10 03:11:39;;;;;;;15.07;3.88;;;;;;;17.43;53.09;100804.25;5050652;28;20017;-80
2023/10/10 03:14:07;;;;;;;11.77;4.03;;;;;;;17.50;52.95;100811.75;5050322;28;20033;-80
2023/10/10 03:16:59;;;;;;;11.40;3.80;;;;;;;17.43;53.04;100808.84;5050484;28;20037;-80
2023/10/10 03:19:28;;;;;;;16.40;4.68;;;;;;;17.45;53.13;100808.69;5050986;28;20025;-79
2023/10/10 03:22:19;;;;;;;11.48;3.58;;;;;;;17.49;53.00;100821.78;5050874;28;20099;-81
2023/10/10 03:30:26;;;;;;;14.93;3.75;;;;;;;17.46;52.86;100816.66;4997594;28;20054;-80
2023/10/10 03:33:16;;;;;;;6.95;3.47;;;;;;;17.41;52.92;100803.59;4988456;28;20045;-80
2023/10/10 03:36:02;;;;;;;12.88;3.78;;;;;;;17.55;52.70;100820.31;4988348;28;20097;-80
2023/10/10 05:25:13;;;;;;;26.27;3.33;;;;;;;17.77;43.01;100904.03;5051920;28;20036;-76
2023/10/10 05:27:42;;;;;;;29.70;4.32;;;;;;;17.67;42.76;100914.22;5051561;28;20025;-77
2023/10/10 05:30:23;;;;;;;22.42;4.40;;;;;;;17.68;42.69;100913.19;5051121;28;20049;-77
2023/10/10 05:33:00;;;;;;;45.25;6.93;;;;;;;17.65;43.16;100914.34;5051323;28;20029;-77
2023/10/10 05:35:33;;;;;;;28.75;5.15;;;;;;;17.64;44.10;100914.53;5051712;28;20055;-77
2023/10/10 05:38:00;;;;;;;23.45;4.75;;;;;;;17.55;44.61;100929.13;5051550;28;20097;-75
2023/10/10 05:40:26;;;;;;;16.63;4.85;;;;;;;17.65;44.51;100929.81;5051500;28;20087;-76
2023/10/10 05:42:52;;;;;;;29.50;6.72;;;;;;;17.79;44.33;100921.91;5051060;28;20567;-76
2023/10/10 05:45:20;;;;;;;57.35;8.15;;;;;;;17.96;44.28;100928.25;5051669;28;20031;-77
2023/10/10 05:47:49;;;;;;;49.92;7.30;;;;;;;17.57;43.74;100854.50;5051105;28;20044;-77
2023/10/10 05:50:16;;;;;;;43.22;5.30;;;;;;;18.17;42.91;100925.06;5051351;28;20025;-76
2023/10/10 05:52:43;;;;;;;38.70;5.60;;;;;;;18.31;42.64;100928.03;5051128;28;20063;-76
2023/10/10 05:55:13;;;;;;;24.98;3.28;;;;;;;18.37;41.43;100913.75;5050850;28;20059;-77
2023/10/10 05:57:39;;;;;;;27.45;5.50;;;;;;;18.48;41.41;100907.94;5050980;28;20400;-76
2023/10/10 06:00:10;;;;;;;40.15;5.32;;;;;;;18.82;41.06;100928.78;5051301;28;20043;-76
2023/10/10 06:02:37;;;;;;;48.17;12.98;;;;;;;18.97;40.31;100935.22;5051199;28;20056;-77
2023/10/10 06:05:04;;;;;;;52.90;9.35;;;;;;;19.13;40.09;100937.97;5051243;28;20106;-76
2023/10/10 06:07:30;;;;;;;22.25;4.28;;;;;;;19.35;39.57;100944.56;5050813;28;20111;-75
2023/10/10 06:09:57;;;;;;;35.97;4.28;;;;;;;19.41;39.29;100942.03;5049622;28;20449;-76
2023/10/10 06:12:24;;;;;;;15.90;3.63;;;;;;;19.14;38.71;100892.47;5050775;28;20032;-76
2023/10/10 06:14:49;;;;;;;49.95;5.28;;;;;;;19.67;38.62;100960.00;5050575;28;20036;-76
2023/10/10 06:17:16;;;;;;;31.55;4.30;;;;;;;19.79;38.09;100964.06;5051061;28;20025;-76
2023/10/10 06:19:45;;;;;;;17.42;2.95;;;;;;;19.74;37.48;100967.34;5050791;28;20029;-76
2023/10/10 06:22:14;;;;;;;17.33;3.60;;;;;;;19.85;37.35;100964.22;5050267;28;20035;-76
2023/10/10 06:24:40;;;;;;;24.58;3.13;;;;;;;19.83;36.93;100952.63;5050713;28;20024;-77
2023/10/10 06:27:09;;;;;;;20.63;3.30;;;;;;;20.08;37.19;100980.69;5050820;28;20523;-76
2023/10/10 06:29:34;;;;;;;10.90;3.40;;;;;;;20.00;36.59;100964.31;5050378;28;20057;-76
2023/10/10 06:32:00;;;;;;;22.38;4.22;;;;;;;19.95;36.12;100950.34;5050422;28;20113;-77
2023/10/10 06:34:34;;;;;;;17.90;3.42;;;;;;;20.14;36.25;100979.97;5050553;28;20512;-76
2023/10/10 06:37:07;;;;;;;26.10;4.28;;;;;;;20.17;37.02;100985.09;5050271;28;20515;-76
2023/10/10 06:39:34;;;;;;;10.70;3.50;;;;;;;20.20;36.16;100992.91;5050570;28;20040;-76
2023/10/10 06:41:59;;;;;;;16.80;3.13;;;;;;;20.14;36.18;100985.44;5049904;28;20024;-77
2023/10/10 06:44:35;;;;;;;13.88;2.67;;;;;;;20.03;36.37;100983.06;5050317;28;20080;-76
2023/10/10 06:47:08;;;;;;;16.70;2.90;;;;;;;19.80;36.41;100977.56;5050223;28;20131;-76
2023/10/10 06:49:43;;;;;;;11.35;2.97;;;;;;;19.81;37.01;100979.28;5049239;28;20037;-76
2023/10/10 06:52:17;;;;;;;15.98;2.70;;;;;;;19.89;36.83;100984.69;5050229;28;20021;-77
2023/10/10 06:54:44;;;;;;;24.13;3.55;;;;;;;19.86;36.70;100981.44;5049978;28;20029;-76
2023/10/10 06:57:17;;;;;;;10.25;2.83;;;;;;;19.83;36.75;100987.25;5050034;28;20041;-76
2023/10/10 06:59:42;;;;;;;13.32;3.17;;;;;;;19.85;36.88;100990.66;5049571;28;20059;-78
2023/10/10 07:02:20;;;;;;;9.00;3.10;;;;;;;19.91;36.79;101000.88;5050661;28;20064;-76
2023/10/10 07:04:52;;;;;;;7.75;2.85;;;;;;;19.89;36.87;100992.88;5049831;28;20025;-76
2023/10/10 07:07:21;;;;;;;11.55;2.88;;;;;;;19.84;36.95;100995.28;5049928;28;20033;-76
2023/10/10 07:09:48;;;;;;;9.85;2.90;;;;;;;19.81;36.95;100992.91;5049726;28;20048;-77
2023/10/10 07:12:16;;;;;;;17.67;3.28;;;;;;;19.93;36.96;100993.38;5049379;28;20029;-76
2023/10/10 07:14:46;;;;;;;18.15;3.20;;;;;;;20.08;36.99;100989.75;5049655;28;20452;-77
2023/10/10 07:17:16;;;;;;;9.15;2.50;;;;;;;20.34;36.87;100994.91;5050014;28;20107;-77
2023/10/10 07:22:41;;;;;;;23.15;3.28;;;;;;;20.53;36.00;100990.88;4948594;28;20058;-76
2023/10/10 07:25:10;;;;;;;14.20;3.75;;;;;;;20.59;35.81;100995.63;4949221;29;20031;-78
2023/10/10 07:27:39;;;;;;;28.98;4.03;;;;;;;20.68;35.75;100999.16;4933219;29;20049;-76
2023/10/10 07:30:16;;;;;;;19.17;4.65;;;;;;;20.39;35.45;100978.00;4948378;29;20527;-76
2023/10/10 07:32:48;;;;;;;13.35;4.03;;;;;;;20.59;35.39;100985.56;4948739;29;20047;-77
2023/10/10 07:35:15;;;;;;;25.48;6.75;;;;;;;20.72;35.47;101006.81;4948583;29;20476;-76
2023/10/10 07:37:45;;;;;;;10.60;3.15;;;;;;;20.80;35.53;101000.44;4948962;29;20027;-76
2023/10/10 07:42:40;;;;;;;15.48;3.58;;;;;;;20.90;35.51;100988.22;4948737;29;20171;-76
2023/10/10 07:45:15;;;;;;;11.30;3.65;;;;;;;21.14;34.74;101014.56;4948778;29;20435;-76
2023/10/10 07:50:26;;;;;;;10.38;3.47;;;;;;;21.27;33.83;101011.22;4948408;29;20054;-77
2023/10/10 07:52:55;;;;;;;16.75;3.08;;;;;;;21.29;33.80;101020.94;4948548;29;20075;-77
2023/10/10 07:55:32;;;;;;;21.88;5.20;;;;;;;21.10;34.09;100997.66;4948510;29;20158;-77
2023/10/10 07:57:59;;;;;;;19.80;3.28;;;;;;;21.26;34.11;101006.75;4985319;28;20041;-76
2023/10/10 08:00:35;;;;;;;22.52;4.28;;;;;;;21.32;34.05;101015.09;5049087;28;20025;-77
2023/10/10 08:03:02;;;;;;;15.43;6.97;;;;;;;21.36;34.06;101015.56;5049376;28;20039;-77
2023/10/10 08:05:29;;;;;;;15.68;4.35;;;;;;;21.50;33.88;101014.72;5048966;28;20074;-76
2023/10/10 08:07:55;;;;;;;21.35;3.92;;;;;;;21.57;33.68;101002.88;5048833;28;20025;-77
2023/10/10 08:10:31;;;;;;;17.45;4.57;;;;;;;21.57;33.57;101013.81;5048773;28;20086;-78
2023/10/10 08:12:57;;;;;;;16.15;4.15;;;;;;;21.64;33.61;101012.03;5049292;28;20029;-76
2023/10/10 08:15:26;;;;;;;22.98;6.85;;;;;;;21.80;33.84;101023.84;5048879;28;20040;-77
2023/10/10 08:17:54;;;;;;;10.50;2.90;;;;;;;21.85;33.98;101018.66;5049174;28;20036;-77
2023/10/10 08:23:08;;;;;;;19.25;4.22;;;;;;;21.89;34.07;101018.13;5048795;28;20064;-76
2023/10/10 08:25:33;;;;;;;9.77;3.67;;;;;;;21.84;34.14;101027.91;5048953;28;20536;-77
2023/10/10 08:28:00;;;;;;;13.80;4.97;;;;;;;21.88;34.12;101037.44;5049236;28;20512;-75
2023/10/10 08:30:26;;;;;;;15.52;5.03;;;;;;;21.68;34.52;101004.28;5048116;28;20056;-77
2023/10/10 08:32:57;;;;;;;18.48;5.05;;;;;;;21.84;34.34;101019.69;5048857;28;20029;-77
2023/10/10 08:35:24;;;;;;;23.75;8.07;;;;;;;21.90;34.41;101018.97;5034609;28;20067;-77
2023/10/10 08:37:52;;;;;;;14.60;4.88;;;;;;;21.75;34.10;101004.38;5052311;28;20025;-76
2023/10/10 08:40:21;;;;;;;13.50;4.88;;;;;;;21.86;34.26;101025.84;5052654;28;20028;-76
2023/10/10 08:42:51;;;;;;;29.10;6.47;;;;;;;21.89;34.23;101017.28;5052447;28;20029;-77
2023/10/10 08:45:24;;;;;;;11.98;4.88;;;;;;;21.87;34.15;101013.84;5052375;28;20120;-76
2023/10/10 08:48:01;;;;;;;14.57;4.35;;;;;;;21.84;33.74;101006.84;5052246;28;20033;-76
2023/10/10 08:50:34;;;;;;;15.00;2.83;;;;;;;21.69;34.10;100995.03;5052095;28;20497;-77
2023/10/10 08:53:00;;;;;;;28.92;2.92;;;;;;;21.78;34.26;101014.97;5052394;28;20025;-76
2023/10/10 08:55:26;;;;;;;13.50;4.72;;;;;;;21.93;33.90;101024.06;5052501;28;20079;-77
2023/10/10 08:57:55;;;;;;;13.45;4.47;;;;;;;22.10;33.61;101020.13;5052549;28;20039;-76
2023/10/10 09:00:22;;;;;;;16.55;3.22;;;;;;;22.38;33.59;101009.31;5052300;28;20108;-76
2023/10/10 09:02:49;;;;;;;21.85;4.25;;;;;;;22.74;33.09;101029.38;5051983;28;20017;-77
2023/10/10 09:05:15;;;;;;;13.25;4.95;;;;;;;22.71;32.63;101030.63;5052096;28;20709;-77
2023/10/10 09:07:43;;;;;;;9.00;2.38;;;;;;;22.67;32.75;101018.31;5051664;28;20472;-77
2023/10/10 09:10:14;;;;;;;53.03;7.38;;;;;;;22.52;32.68;101019.38;5051953;28;20029;-77
2023/10/10 09:12:53;;;;;;;19.77;6.10;;;;;;;22.63;33.21;101032.56;5051375;28;20029;-76
2023/10/10 09:15:19;;;;;;;8.35;3.28;;;;;;;22.72;33.08;101036.94;5051367;28;20033;-76
2023/10/10 09:17:46;;;;;;;21.25;3.00;;;;;;;22.55;33.43;101049.16;5051740;28;20047;-76
2023/10/10 09:20:28;;;;;;;14.57;3.60;;;;;;;22.48;33.73;101049.06;5051717;28;20377;-78
2023/10/10 09:23:18;;;;;;;14.02;4.22;;;;;;;22.44;34.04;101052.41;5033872;28;20045;-77
2023/10/10 09:25:48;;;;;;;47.20;7.90;;;;;;;22.33;33.85;101042.75;5050498;28;20071;-77
2023/10/10 09:28:16;;;;;;;31.35;4.32;;;;;;;22.50;34.23;101049.75;5051819;28;20032;-76
2023/10/10 09:30:49;;;;;;;24.67;4.07;;;;;;;22.38;34.10;101006.56;5015580;28;21119;-76
2023/10/10 09:33:27;;;;;;;17.58;3.95;;;;;;;22.83;33.60;101033.69;5051833;28;20033;-79
2023/10/10 09:36:15;;;;;;;9.20;2.88;;;;;;;22.98;33.51;101034.50;5051361;28;20031;-75
2023/10/10 09:38:53;;;;;;;7.20;2.90;;;;;;;22.99;33.49;101021.63;5051537;28;20056;-76
2023/10/10 09:41:36;;;;;;;4.70;2.03;;;;;;;23.05;33.40;101026.31;5034948;28;20052;-77
2023/10/10 09:49:51;;;;;;;13.23;3.38;;;;;;;23.29;33.43;101018.53;5051141;28;20057;-77
2023/10/10 09:57:42;;;;;;;10.48;3.38;;;;;;;23.22;32.79;100989.31;5050724;28;20075;-76
2023/10/10 10:00:15;;;;;;;23.00;3.00;;;;;;;23.38;33.16;101024.72;5051112;28;20087;-76
2023/10/10 10:02:49;;;;;;;10.80;3.55;;;;;;;23.35;33.08;101033.38;5050960;28;20068;-76
2023/10/10 10:05:18;;;;;;;6.03;2.58;;;;;;;23.37;33.07;101023.03;5050636;28;20032;-77
2023/10/10 10:08:01;;;;;;;23.27;3.95;;;;;;;23.34;32.73;101015.19;5050850;28;20031;-76
2023/10/10 10:10:48;;;;;;;13.13;3.00;;;;;;;23.44;32.72;101009.38;5051000;28;20025;-77
2023/10/10 10:13:28;;;;;;;11.90;2.65;;;;;;;23.35;33.05;101024.28;5050806;28;20033;-76
2023/10/10 10:16:25;;;;;;;23.05;6.50;;;;;;;23.36;32.75;101024.09;5050887;28;20051;-75
2023/10/10 10:19:11;;;;;;;14.20;6.68;;;;;;;23.29;33.35;101018.53;4989334;28;20479;-77
2023/10/10 10:21:51;;;;;;;7.90;2.25;;;;;;;23.24;33.05;101028.38;4988791;28;20034;-77
2023/10/10 10:24:26;;;;;;;8.43;2.38;;;;;;;23.06;33.17;100995.06;4988782;28;20034;-77
2023/10/10 10:32:44;;;;;;;5.32;3.17;;;;;;;23.09;33.39;101022.13;4968461;28;20054;-76
2023/10/10 10:35:15;;;;;;;18.33;4.32;;;;;;;23.24;33.07;101036.63;4968916;28;20199;-76
2023/10/10 10:37:42;;;;;;;10.15;2.38;;;;;;;23.19;33.31;101028.13;4969203;28;20042;-77
2023/10/10 10:42:58;;;;;;;19.60;4.63;;;;;;;23.32;33.08;101028.28;4968942;28;20145;-77
2023/10/10 10:45:33;;;;;;;21.13;8.18;;;;;;;23.37;32.92;101035.91;4968939;28;20537;-77
2023/10/10 10:48:01;;;;;;;29.05;4.88;;;;;;;23.39;32.94;101037.44;4953645;28;20047;-77
2023/10/10 10:50:30;;;;;;;14.20;4.82;;;;;;;23.31;32.97;101034.78;4952838;28;20042;-77
2023/10/10 10:53:04;;;;;;;12.05;4.03;;;;;;;23.24;32.81;101026.50;4968659;28;20050;-76
2023/10/10 10:55:30;;;;;;;12.30;3.58;;;;;;;23.10;32.89;101026.56;4968059;28;20557;-76
2023/10/10 10:58:06;;;;;;;17.40;5.15;;;;;;;22.88;33.07;101009.25;4968584;28;20073;-76
2023/10/10 11:01:07;;;;;;;12.70;4.55;;;;;;;22.82;33.03;101009.19;4968451;28;20034;-76
2023/10/10 11:03:35;;;;;;;27.15;5.63;;;;;;;22.82;33.51;101020.16;4968016;28;20035;-76
2023/10/10 11:06:09;;;;;;;11.65;3.38;;;;;;;22.99;33.36;101032.59;5005073;28;20180;-77
2023/10/10 11:11:36;;;;;;;12.38;3.38;;;;;;;23.45;32.48;101028.44;5013617;28;20205;-77
2023/10/10 11:16:46;;;;;;;14.48;3.30;;;;;;;23.51;31.78;101033.13;5029275;28;20112;-77
2023/10/10 11:21:50;;;;;;;12.98;3.22;;;;;;;23.26;32.26;101029.06;5029592;28;20056;-77
2023/10/10 11:24:23;;;;;;;10.30;2.80;;;;;;;23.08;32.42;101025.94;5029773;28;20033;-76
2023/10/10 11:32:24;;;;;;;10.88;4.85;;;;;;;23.01;32.67;101028.59;5049442;28;20450;-77
2023/10/10 11:34:57;;;;;;;12.00;2.58;;;;;;;23.21;32.61;101042.50;5049275;28;20041;-77
2023/10/10 11:37:31;;;;;;;13.30;3.80;;;;;;;23.22;32.11;101047.81;5049537;28;20445;-76
2023/10/10 11:43:11;;;;;;;8.75;2.60;;;;;;;23.03;32.43;101053.09;5049464;28;20052;-76
2023/10/10 11:45:50;;;;;;;15.57;4.15;;;;;;;23.07;32.47;101046.19;5049044;28;20108;-77
2023/10/10 11:48:15;;;;;;;9.25;3.28;;;;;;;23.02;32.52;101048.66;5049545;28;20052;-78
2023/10/10 11:50:59;;;;;;;12.75;4.35;;;;;;;22.65;32.60;100990.25;5049285;28;20199;-76
2023/10/10 11:53:27;;;;;;;11.95;4.15;;;;;;;22.79;32.68;101046.09;5048836;28;20120;-77
2023/10/10 11:56:01;;;;;;;19.13;3.90;;;;;;;22.62;32.74;101039.97;5049164;28;20037;-77
2023/10/10 11:58:35;;;;;;;13.63;4.32;;;;;;;22.61;32.98;101057.47;5031435;28;20433;-77
2023/10/10 12:01:09;;;;;;;11.38;3.88;;;;;;;22.64;33.27;101056.22;5031041;28;20477;-77
2023/10/10 12:06:04;;;;;;;23.65;5.47;;;;;;;22.40;33.49;101054.66;5048582;28;20033;-77
2023/10/10 12:08:29;;;;;;;11.40;3.65;;;;;;;22.39;33.61;101047.47;5051719;28;20055;-77
2023/10/10 12:11:12;;;;;;;13.75;3.33;;;;;;;22.34;33.60;101058.16;5052923;28;20029;-77
2023/10/10 12:13:37;;;;;;;;;;;;;;;22.38;33.92;101062.25;5053614;28;20128;-76
2023/10/10 12:16:07;;;;;;;26.00;5.20;;;;;;;22.47;33.69;101060.22;5033899;28;20431;-77
2023/10/10 12:18:34;;;;;;;9.18;2.30;;;;;;;22.55;33.21;101050.00;5052883;28;20028;-76
2023/10/10 12:21:03;;;;;;;6.07;2.35;;;;;;;22.60;33.30;101066.72;5052925;28;20027;-78
2023/10/10 12:23:30;;;;;;;36.28;12.98;;;;;;;22.68;33.43;101058.44;5052715;28;20520;-77
2023/10/10 12:25:56;;;;;;;30.10;5.72;;;;;;;22.74;32.97;101051.31;5052666;28;20024;-78
2023/10/10 12:28:21;;;;;;;17.95;3.17;;;;;;;22.76;32.92;101044.59;5052905;28;20040;-75
2023/10/10 12:30:47;;;;;;;14.23;3.88;;;;;;;22.81;32.62;101057.75;5052695;28;20057;-77
2023/10/10 12:33:15;;;;;;;6.75;3.15;;;;;;;22.63;32.81;101038.91;5052559;28;20036;-76
2023/10/10 12:35:50;;;;;;;10.43;2.95;;;;;;;22.81;32.75;101060.47;5053033;28;20035;-76
2023/10/10 12:38:23;;;;;;;14.65;3.35;;;;;;;22.69;32.62;101040.06;5052318;28;20489;-76
2023/10/10 12:40:53;;;;;;;19.63;4.45;;;;;;;22.80;32.64;101067.00;5052715;28;20037;-76
2023/10/10 12:43:25;;;;;;;16.65;3.03;;;;;;;22.81;32.86;101073.34;5052570;28;20020;-76
2023/10/10 12:45:51;;;;;;;10.63;2.83;;;;;;;22.80;32.50;101083.47;5052545;28;20032;-77
2023/10/10 12:48:20;;;;;;;15.00;5.68;;;;;;;22.76;32.41;101066.53;5052619;28;20037;-76
2023/10/10 12:50:54;;;;;;;12.45;5.53;;;;;;;22.68;32.47;101080.38;5052894;28;20534;-76
2023/10/10 12:53:20;;;;;;;8.95;2.90;;;;;;;22.55;32.65;101080.16;5052054;28;20527;-77
2023/10/10 12:55:55;;;;;;;11.60;3.65;;;;;;;22.52;32.66;101076.94;5052364;28;20025;-78
2023/10/10 12:58:22;;;;;;;14.60;3.33;;;;;;;22.30;32.84;101081.50;5001537;28;20049;-77
2023/10/10 13:00:52;;;;;;;12.43;3.35;;;;;;;22.26;32.82;101077.47;5052030;28;20033;-77
2023/10/10 13:03:28;;;;;;;20.35;6.25;;;;;;;22.27;32.82;101070.91;5016832;28;20045;-76
2023/10/10 13:05:58;;;;;;;18.00;4.30;;;;;;;22.23;32.85;101069.63;5051893;28;20116;-75
2023/10/10 13:11:17;;;;;;;20.83;3.33;;;;;;;21.98;32.97;101049.03;5052206;28;20114;-76
2023/10/10 13:13:56;;;;;;;14.60;3.67;;;;;;;22.02;33.07;101062.13;5033020;28;20098;-76
2023/10/10 13:16:23;;;;;;;17.38;3.72;;;;;;;22.12;33.22;101068.19;5051671;28;20021;-76
2023/10/10 13:18:53;;;;;;;13.32;3.30;;;;;;;22.11;33.33;101082.06;5051202;28;20029;-76
2023/10/10 13:21:21;;;;;;;20.92;3.80;;;;;;;21.93;33.26;101040.50;5051723;28;20555;-77
2023/10/10 13:23:48;;;;;;;26.98;2.67;;;;;;;21.90;33.15;101060.03;5051757;28;20085;-76
2023/10/10 13:26:13;;;;;;;19.90;3.65;;;;;;;22.00;33.63;101090.75;5051479;28;20032;-76
2023/10/10 13:28:44;;;;;;;6.50;2.92;;;;;;;21.99;33.16;101061.66;5051774;28;20123;-77
2023/10/10 13:31:13;;;;;;;22.75;5.10;;;;;;;22.10;33.15;101077.66;5051547;28;20114;-76
2023/10/10 13:33:39;;;;;;;40.25;4.90;;;;;;;22.15;33.06;101084.25;5051194;28;20040;-79
2023/10/10 13:36:06;;;;;;;21.60;3.47;;;;;;;22.14;32.89;101081.69;5051458;28;20102;-77
2023/10/10 13:38:31;;;;;;;27.17;3.60;;;;;;;21.89;32.76;101063.84;5051666;28;20122;-77
2023/10/10 13:41:01;;;;;;;27.80;5.10;;;;;;;21.91;32.89;101080.94;5033930;28;20036;-76
2023/10/10 13:43:27;;;;;;;34.55;5.78;;;;;;;21.89;33.08;101083.88;5051587;28;20021;-77
2023/10/10 13:45:55;;;;;;;19.17;3.55;;;;;;;21.89;33.13;101099.44;5051378;28;20091;-77
2023/10/10 13:48:23;;;;;;;23.02;3.63;;;;;;;21.82;33.22;101099.31;5051438;28;20029;-76
2023/10/10 13:50:54;;;;;;;10.77;3.25;;;;;;;21.82;33.07;101087.50;5051440;28;20120;-77
2023/10/10 13:53:20;;;;;;;56.63;7.82;;;;;;;21.91;33.15;101086.41;5033170;28;20721;-77
2023/10/10 13:55:46;;;;;;;20.05;4.95;;;;;;;21.85;32.99;101081.66;5050936;28;20108;-78
2023/10/10 13:58:13;;;;;;;17.08;3.13;;;;;;;22.01;32.82;101078.78;5051326;28;20067;-75
2023/10/10 14:00:52;;;;;;;13.20;3.38;;;;;;;22.10;32.78;101097.69;5050551;28;20068;-76
2023/10/10 14:03:28;;;;;;;13.63;3.03;;;;;;;22.15;32.63;101100.69;5051005;28;20091;-76
2023/10/10 14:06:03;;;;;;;10.85;2.83;;;;;;;22.20;32.21;101102.84;5003898;28;20041;-76
2023/10/10 14:08:30;;;;;;;19.33;4.93;;;;;;;22.26;32.36;101110.34;5050604;28;20025;-75
2023/10/10 14:10:59;;;;;;;10.73;2.97;;;;;;;22.09;32.12;101103.34;5050840;28;20024;-76
2023/10/10 14:13:26;;;;;;;25.33;4.30;;;;;;;21.94;32.46;101100.59;5050796;28;20029;-78
2023/10/10 14:15:55;;;;;;;7.63;2.85;;;;;;;21.94;32.41;101114.28;5050703;28;20455;-77
2023/10/10 14:18:20;;;;;;;15.55;3.15;;;;;;;21.92;32.47;101101.81;5050499;28;20067;-77
2023/10/10 14:20:47;;;;;;;33.42;5.88;;;;;;;21.88;32.30;101104.06;5050506;28;20097;-77
2023/10/10 14:23:14;;;;;;;24.95;4.85;;;;;;;21.84;32.03;101108.19;5031339;28;20031;-76
2023/10/10 14:25:45;;;;;;;13.18;3.20;;;;;;;21.83;31.88;101108.38;5050108;28;20025;-76
2023/10/10 14:28:16;;;;;;;25.33;3.20;;;;;;;21.80;31.93;101111.50;5050966;28;20029;-77
2023/10/10 14:30:49;;;;;;;27.55;5.72;;;;;;;21.64;31.73;101115.22;5049277;28;20128;-77
2023/10/10 14:33:16;;;;;;;44.83;8.90;;;;;;;21.51;32.11;101113.09;5050555;28;20790;-76
2023/10/10 14:35:41;;;;;;;33.17;4.60;;;;;;;21.33;32.17;101120.78;5050704;28;20444;-76
2023/10/10 14:38:07;;;;;;;43.90;6.03;;;;;;;21.23;32.25;101128.38;5014995;28;20029;-77
2023/10/10 14:40:34;;;;;;;40.70;6.03;;;;;;;21.03;32.48;101130.72;5050410;28;20566;-76